Rhl Felicitas — A8SV2 — position and weather

sailwx.info

Track history (hours):
 
Tides and Currents Weather Stations Pressure Air Temp Water Temp Dewpoint Dewpoint Depression Visibility Wind Speed Wind Dir Waves Ship Positions

Rhl Felicitas

Last reported at 2014-Sep-09 16:25 UTC. Time now 2014-Sep-21 12:11 UTC.
Position N 32°04' W 080°58'.
Warning: this ship's position is 11 days out of date.

Length 294 m; draft 11.8 m.

Type: Cargo ship. MMSI: 636091781.

Date/timePositionNaut miles runAvg speedWind from/ knotsBaromVisibWave heightAir tempDewpointWater temp
2014-Sep-09 16:25N 32°04' W 080°58'8 8.6
2014-Sep-09 15:28N 32°06' W 081°07'2 0.4
2014-Sep-09 11:28N 32°08' W 081°08'0 0.0
2014-Sep-09 09:23N 32°08' W 081°08'0 0.0
2014-Sep-09 08:10N 32°08' W 081°08'0 0.0
2014-Sep-09 07:10N 32°08' W 081°08'0 0.0
2014-Sep-09 06:31N 32°08' W 081°08'0 0.0
2014-Sep-09 05:29N 32°08' W 081°08'0 0.0
2014-Sep-09 04:28N 32°08' W 081°08'0 0.0
2014-Sep-09 02:25N 32°08' W 081°08'0 0.0
2014-Sep-09 01:22N 32°08' W 081°08'0 0.0
2014-Sep-08 22:11N 32°08' W 081°08'0 0.0
2014-Sep-08 20:22N 32°08' W 081°08'0 0.0
2014-Sep-08 19:25N 32°08' W 081°08'0 0.0
2014-Sep-08 18:25N 32°08' W 081°08'0 0.0
2014-Sep-08 17:26N 32°08' W 081°08'0 0.0
2014-Sep-08 16:31N 32°08' W 081°08'0 0.0
2014-Sep-08 14:28N 32°08' W 081°08'2 0.4
2014-Sep-08 10:24N 32°06' W 081°07'5 5.8
2014-Sep-08 09:33N 32°05' W 081°01'38812.1
2014-Sep-07 01:33N 36°49' W 075°40'1414.0
2014-Sep-07 00:33N 36°55' W 075°56'1514.9
2014-Sep-06 23:32N 37°00' W 076°13'7 7.1
2014-Sep-06 22:33N 36°55' W 076°20'0 0.0
2014-Sep-06 21:28N 36°55' W 076°20'0 0.0
2014-Sep-06 20:31N 36°55' W 076°20'0 0.0
2014-Sep-06 19:25N 36°55' W 076°20'0 0.0
2014-Sep-06 18:28N 36°55' W 076°20'0 0.0
2014-Sep-06 11:27N 36°55' W 076°20'4 4.6
2014-Sep-06 10:31N 36°60' W 076°19'1010.1
2014-Sep-06 09:32N 36°58' W 076°06'1110.8
2014-Sep-06 08:33N 36°54' W 075°54'60 9.6
2014-Sep-06 02:16N 37°36' W 074°58'1013.9
2014-Sep-06 01:33N 37°44' W 074°52'1414.0
2014-Sep-06 00:33N 37°55' W 074°41'1413.6
2014-Sep-05 23:33N 38°06' W 074°31'1313.4
2014-Sep-05 22:33N 38°17' W 074°21'1313.4
2014-Sep-05 21:33N 38°30' W 074°15'1311.3
2014-Sep-05 20:27N 38°41' W 074°09'1314.3
2014-Sep-05 19:33N 38°53' W 074°03'1514.2
2014-Sep-05 18:31N 39°07' W 073°57'1314.0
2014-Sep-05 17:33N 39°21' W 073°55'1414.0
2014-Sep-05 16:33N 39°35' W 073°54'1414.0
2014-Sep-05 15:33N 39°49' W 073°52'1414.1
2014-Sep-05 14:33N 40°02' W 073°51'1414.1
2014-Sep-05 13:33N 40°17' W 073°49'1110.9
2014-Sep-05 12:33N 40°27' W 073°51'1313.3
2014-Sep-05 11:33N 40°37' W 074°03'5 5.3
2014-Sep-05 10:32N 40°39' W 074°10'1 1.3
2014-Sep-05 09:33N 40°39' W 074°11'0 0.0
2014-Sep-05 08:33N 40°39' W 074°11'0 0.0
2014-Sep-05 07:33N 40°39' W 074°11'0 0.0
2014-Sep-05 06:33N 40°39' W 074°11'0 0.0
2014-Sep-05 05:33N 40°39' W 074°11'0 0.0
2014-Sep-05 04:33N 40°39' W 074°11'0 0.0
2014-Sep-05 03:33N 40°39' W 074°11'0 0.0
2014-Sep-05 02:33N 40°39' W 074°11'0 0.0
2014-Sep-05 01:33N 40°39' W 074°11'0 0.0
2014-Sep-05 00:33N 40°39' W 074°11'0 0.0
2014-Sep-04 23:33N 40°39' W 074°11'0 0.0
2014-Sep-04 22:33N 40°39' W 074°11'0 0.0
2014-Sep-04 21:33N 40°39' W 074°11'0 0.0
2014-Sep-04 20:33N 40°39' W 074°11'0 0.0
2014-Sep-04 19:33N 40°39' W 074°11'0 0.0
2014-Sep-04 18:33N 40°39' W 074°11'0 0.0
2014-Sep-04 17:33N 40°39' W 074°11'0 0.0
2014-Sep-04 16:33N 40°39' W 074°11'0 0.1
2014-Sep-04 15:33N 40°39' W 074°11'6 6.3
2014-Sep-04 14:33N 40°38' W 074°03'1111.2
2014-Sep-04 13:33N 40°29' W 073°54'9 9.3
2014-Sep-04 12:34N 40°21' W 073°47'1414.0
2014-Sep-04 11:33N 40°07' W 073°44'1414.0
2014-Sep-04 10:34N 39°53' W 073°42'10 9.7
2014-Sep-04 09:33N 39°44' W 073°42'1414.1
2014-Sep-04 08:34N 39°30' W 073°42'1515.5
2014-Sep-04 07:34N 39°14' W 073°43'1615.8
2014-Sep-04 06:34N 38°58' W 073°44'1615.9
2014-Sep-04 05:33N 38°42' W 073°45'1615.5
2014-Sep-04 04:33N 38°27' W 073°48'1815.3
2014-Sep-04 03:22N 38°09' W 073°53'3015.2
2014-Sep-04 01:23N 37°39' W 073°56'  
Track history (hours):
 
Tides and Currents Weather Stations Pressure Air Temp Water Temp Dewpoint Dewpoint Depression Visibility Wind Speed Wind Dir Waves Ship Positions

Rhl Felicitas

Last reported at 2014-Sep-09 16:25 UTC. Time now 2014-Sep-21 12:11 UTC.
Position N 32°04' W 080°58'.
Warning: this ship's position is 11 days out of date.

Length 294 m; draft 11.8 m.

Type: Cargo ship. MMSI: 636091781.

Date/timePositionNaut miles runAvg speedWind from/ knotsBaromVisibWave heightAir tempDewpointWater temp
2014-Sep-09 16:25N 32°04' W 080°58'8 8.6
2014-Sep-09 15:28N 32°06' W 081°07'2 0.4
2014-Sep-09 11:28N 32°08' W 081°08'0 0.0
2014-Sep-09 09:23N 32°08' W 081°08'0 0.0
2014-Sep-09 08:10N 32°08' W 081°08'0 0.0
2014-Sep-09 07:10N 32°08' W 081°08'0 0.0
2014-Sep-09 06:31N 32°08' W 081°08'0 0.0
2014-Sep-09 05:29N 32°08' W 081°08'0 0.0
2014-Sep-09 04:28N 32°08' W 081°08'0 0.0
2014-Sep-09 02:25N 32°08' W 081°08'0 0.0
2014-Sep-09 01:22N 32°08' W 081°08'0 0.0
2014-Sep-08 22:11N 32°08' W 081°08'0 0.0
2014-Sep-08 20:22N 32°08' W 081°08'0 0.0
2014-Sep-08 19:25N 32°08' W 081°08'0 0.0
2014-Sep-08 18:25N 32°08' W 081°08'0 0.0
2014-Sep-08 17:26N 32°08' W 081°08'0 0.0
2014-Sep-08 16:31N 32°08' W 081°08'0 0.0
2014-Sep-08 14:28N 32°08' W 081°08'2 0.4
2014-Sep-08 10:24N 32°06' W 081°07'5 5.8
2014-Sep-08 09:33N 32°05' W 081°01'38812.1
2014-Sep-07 01:33N 36°49' W 075°40'1414.0
2014-Sep-07 00:33N 36°55' W 075°56'1514.9
2014-Sep-06 23:32N 37°00' W 076°13'7 7.1
2014-Sep-06 22:33N 36°55' W 076°20'0 0.0
2014-Sep-06 21:28N 36°55' W 076°20'0 0.0
2014-Sep-06 20:31N 36°55' W 076°20'0 0.0
2014-Sep-06 19:25N 36°55' W 076°20'0 0.0
2014-Sep-06 18:28N 36°55' W 076°20'0 0.0
2014-Sep-06 11:27N 36°55' W 076°20'4 4.6
2014-Sep-06 10:31N 36°60' W 076°19'1010.1
2014-Sep-06 09:32N 36°58' W 076°06'1110.8
2014-Sep-06 08:33N 36°54' W 075°54'60 9.6
2014-Sep-06 02:16N 37°36' W 074°58'1013.9
2014-Sep-06 01:33N 37°44' W 074°52'1414.0
2014-Sep-06 00:33N 37°55' W 074°41'1413.6
2014-Sep-05 23:33N 38°06' W 074°31'1313.4
2014-Sep-05 22:33N 38°17' W 074°21'1313.4
2014-Sep-05 21:33N 38°30' W 074°15'1311.3
2014-Sep-05 20:27N 38°41' W 074°09'1314.3
2014-Sep-05 19:33N 38°53' W 074°03'1514.2
2014-Sep-05 18:31N 39°07' W 073°57'1314.0
2014-Sep-05 17:33N 39°21' W 073°55'1414.0
2014-Sep-05 16:33N 39°35' W 073°54'1414.0
2014-Sep-05 15:33N 39°49' W 073°52'1414.1
2014-Sep-05 14:33N 40°02' W 073°51'1414.1
2014-Sep-05 13:33N 40°17' W 073°49'1110.9
2014-Sep-05 12:33N 40°27' W 073°51'1313.3
2014-Sep-05 11:33N 40°37' W 074°03'5 5.3
2014-Sep-05 10:32N 40°39' W 074°10'1 1.3
2014-Sep-05 09:33N 40°39' W 074°11'0 0.0
2014-Sep-05 08:33N 40°39' W 074°11'0 0.0
2014-Sep-05 07:33N 40°39' W 074°11'0 0.0
2014-Sep-05 06:33N 40°39' W 074°11'0 0.0
2014-Sep-05 05:33N 40°39' W 074°11'0 0.0
2014-Sep-05 04:33N 40°39' W 074°11'0 0.0
2014-Sep-05 03:33N 40°39' W 074°11'0 0.0
2014-Sep-05 02:33N 40°39' W 074°11'0 0.0
2014-Sep-05 01:33N 40°39' W 074°11'0 0.0
2014-Sep-05 00:33N 40°39' W 074°11'0 0.0
2014-Sep-04 23:33N 40°39' W 074°11'0 0.0
2014-Sep-04 22:33N 40°39' W 074°11'0 0.0
2014-Sep-04 21:33N 40°39' W 074°11'0 0.0
2014-Sep-04 20:33N 40°39' W 074°11'0 0.0
2014-Sep-04 19:33N 40°39' W 074°11'0 0.0
2014-Sep-04 18:33N 40°39' W 074°11'0 0.0
2014-Sep-04 17:33N 40°39' W 074°11'0 0.0
2014-Sep-04 16:33N 40°39' W 074°11'0 0.1
2014-Sep-04 15:33N 40°39' W 074°11'6 6.3
2014-Sep-04 14:33N 40°38' W 074°03'1111.2
2014-Sep-04 13:33N 40°29' W 073°54'9 9.3
2014-Sep-04 12:34N 40°21' W 073°47'1414.0
2014-Sep-04 11:33N 40°07' W 073°44'1414.0
2014-Sep-04 10:34N 39°53' W 073°42'10 9.7
2014-Sep-04 09:33N 39°44' W 073°42'1414.1
2014-Sep-04 08:34N 39°30' W 073°42'1515.5
2014-Sep-04 07:34N 39°14' W 073°43'1615.8
2014-Sep-04 06:34N 38°58' W 073°44'1615.9
2014-Sep-04 05:33N 38°42' W 073°45'1615.5
2014-Sep-04 04:33N 38°27' W 073°48'1815.3
2014-Sep-04 03:22N 38°09' W 073°53'3015.2
2014-Sep-04 01:23N 37°39' W 073°56'  

Dump ship's entire track history